sensor_id;sensor_type;location;lat;lon;timestamp;pressure;altitude;pressure_sealevel;temperature;humidity
67430;BME280;54298;52.076;5.264;2022-08-24T00:01:18;101709.0;;;20.55;79.69
67430;BME280;54298;52.076;5.264;2022-08-24T00:02:54;101706.0;;;20.36;80.55
67430;BME280;54298;52.076;5.264;2022-08-24T00:04:30;101705.0;;;20.37;80.62
67430;BME280;54298;52.076;5.264;2022-08-24T00:06:11;101703.0;;;20.46;80.11
67430;BME280;54298;52.076;5.264;2022-08-24T00:09:26;101705.0;;;20.49;79.78
67430;BME280;54298;52.076;5.264;2022-08-24T00:11:03;101708.0;;;20.36;80.31
67430;BME280;54298;52.076;5.264;2022-08-24T00:12:39;101710.0;;;20.34;80.45
67430;BME280;54298;52.076;5.264;2022-08-24T00:15:54;101715.0;;;20.29;80.55
67430;BME280;54298;52.076;5.264;2022-08-24T00:17:30;101712.0;;;20.27;80.58
67430;BME280;54298;52.076;5.264;2022-08-24T00:19:06;101715.0;;;20.14;81.16
67430;BME280;54298;52.076;5.264;2022-08-24T00:20:42;101718.0;;;20.09;81.49
67430;BME280;54298;52.076;5.264;2022-08-24T00:23:55;101718.0;;;20.2;81.05
67430;BME280;54298;52.076;5.264;2022-08-24T00:25:32;101718.0;;;20.11;81.36
67430;BME280;54298;52.076;5.264;2022-08-24T00:27:10;101718.0;;;20.16;81.16
67430;BME280;54298;52.076;5.264;2022-08-24T00:30:22;101711.0;;;20.16;81.02
67430;BME280;54298;52.076;5.264;2022-08-24T00:31:59;101712.0;;;20.13;80.86
67430;BME280;54298;52.076;5.264;2022-08-24T00:33:36;101719.0;;;20.11;81.0
67430;BME280;54298;52.076;5.264;2022-08-24T00:36:53;101712.0;;;20.13;80.74
67430;BME280;54298;52.076;5.264;2022-08-24T00:38:30;101712.0;;;20.14;80.44
67430;BME280;54298;52.076;5.264;2022-08-24T00:40:15;101713.0;;;20.13;80.3
67430;BME280;54298;52.076;5.264;2022-08-24T00:41:53;101703.0;;;20.09;80.28
67430;BME280;54298;52.076;5.264;2022-08-24T00:45:09;101711.0;;;20.02;80.47
67430;BME280;54298;52.076;5.264;2022-08-24T00:46:50;101711.0;;;19.93;80.78
67430;BME280;54298;52.076;5.264;2022-08-24T00:48:38;101711.0;;;19.95;80.75
67430;BME280;54298;52.076;5.264;2022-08-24T00:50:19;101710.0;;;20.03;80.11
67430;BME280;54298;52.076;5.264;2022-08-24T00:53:43;101711.0;;;19.95;80.3
67430;BME280;54298;52.076;5.264;2022-08-24T00:55:27;101710.0;;;19.87;80.52
67430;BME280;54298;52.076;5.264;2022-08-24T00:57:13;101710.0;;;19.93;80.44
67430;BME280;54298;52.076;5.264;2022-08-24T00:58:58;101708.0;;;19.95;79.99
67430;BME280;54298;52.076;5.264;2022-08-24T01:00:42;101707.0;;;19.98;79.69
67430;BME280;54298;52.076;5.264;2022-08-24T01:04:07;101705.0;;;19.97;79.55
67430;BME280;54298;52.076;5.264;2022-08-24T01:05:46;101702.0;;;19.95;79.62
67430;BME280;54298;52.076;5.264;2022-08-24T01:07:25;101698.0;;;19.91;79.58
67430;BME280;54298;52.076;5.264;2022-08-24T01:09:04;101702.0;;;19.88;79.37
67430;BME280;54298;52.076;5.264;2022-08-24T01:12:23;101702.0;;;19.91;78.98
67430;BME280;54298;52.076;5.264;2022-08-24T01:14:02;101701.0;;;19.91;78.72
67430;BME280;54298;52.076;5.264;2022-08-24T01:15:41;101699.0;;;19.93;78.42
67430;BME280;54298;52.076;5.264;2022-08-24T01:20:12;101701.0;;;19.77;78.8
67430;BME280;54298;52.076;5.264;2022-08-24T01:21:57;101698.0;;;19.59;79.58
67430;BME280;54298;52.076;5.264;2022-08-24T01:23:43;101698.0;;;19.5;80.2
67430;BME280;54298;52.076;5.264;2022-08-24T01:27:00;101695.0;;;19.45;80.44
67430;BME280;54298;52.076;5.264;2022-08-24T01:28:41;101694.0;;;19.48;80.24
67430;BME280;54298;52.076;5.264;2022-08-24T01:30:18;101689.0;;;19.52;80.11
67430;BME280;54298;52.076;5.264;2022-08-24T01:31:56;101688.0;;;19.52;79.8
67430;BME280;54298;52.076;5.264;2022-08-24T01:35:09;101694.0;;;19.59;79.49
67430;BME280;54298;52.076;5.264;2022-08-24T01:36:47;101694.0;;;19.61;79.13
67430;BME280;54298;52.076;5.264;2022-08-24T01:38:26;101693.0;;;19.63;78.86
67430;BME280;54298;52.076;5.264;2022-08-24T01:41:42;101693.0;;;19.66;78.52
67430;BME280;54298;52.076;5.264;2022-08-24T01:43:18;101694.0;;;19.62;78.53
67430;BME280;54298;52.076;5.264;2022-08-24T01:44:54;101693.0;;;19.57;78.73
67430;BME280;54298;52.076;5.264;2022-08-24T01:46:32;101694.0;;;19.59;78.66
67430;BME280;54298;52.076;5.264;2022-08-24T01:49:47;101696.0;;;19.59;78.56
67430;BME280;54298;52.076;5.264;2022-08-24T01:51:25;101698.0;;;19.57;78.61
67430;BME280;54298;52.076;5.264;2022-08-24T01:53:06;101702.0;;;19.45;79.03
67430;BME280;54298;52.076;5.264;2022-08-24T01:56:20;101701.0;;;19.34;79.44
67430;BME280;54298;52.076;5.264;2022-08-24T01:57:57;101708.0;;;19.2;80.16
67430;BME280;54298;52.076;5.264;2022-08-24T01:59:35;101705.0;;;19.06;80.69
67430;BME280;54298;52.076;5.264;2022-08-24T02:01:12;101709.0;;;19.02;81.13
67430;BME280;54298;52.076;5.264;2022-08-24T02:04:26;101709.0;;;19.02;81.24
67430;BME280;54298;52.076;5.264;2022-08-24T02:06:05;101706.0;;;19.04;81.02
67430;BME280;54298;52.076;5.264;2022-08-24T02:07:41;101707.0;;;19.06;81.08
67430;BME280;54298;52.076;5.264;2022-08-24T02:10:53;101716.0;;;18.95;81.7
67430;BME280;54298;52.076;5.264;2022-08-24T02:12:30;101719.0;;;18.8;82.36
67430;BME280;54298;52.076;5.264;2022-08-24T02:14:06;101720.0;;;18.77;82.48
67430;BME280;54298;52.076;5.264;2022-08-24T02:15:42;101718.0;;;18.79;82.51
67430;BME280;54298;52.076;5.264;2022-08-24T02:18:56;101721.0;;;18.8;82.68
67430;BME280;54298;52.076;5.264;2022-08-24T02:20:33;101719.0;;;18.82;82.65
67430;BME280;54298;52.076;5.264;2022-08-24T02:22:10;101714.0;;;18.79;82.85
67430;BME280;54298;52.076;5.264;2022-08-24T02:25:25;101713.0;;;18.84;82.66
67430;BME280;54298;52.076;5.264;2022-08-24T02:27:02;101718.0;;;18.91;82.5
67430;BME280;54298;52.076;5.264;2022-08-24T02:28:39;101719.0;;;18.93;82.32
67430;BME280;54298;52.076;5.264;2022-08-24T02:31:53;101719.0;;;18.96;82.16
67430;BME280;54298;52.076;5.264;2022-08-24T02:33:29;101715.0;;;18.97;81.91
67430;BME280;54298;52.076;5.264;2022-08-24T02:35:05;101713.0;;;19.02;81.64
67430;BME280;54298;52.076;5.264;2022-08-24T02:36:42;101713.0;;;19.04;81.58
67430;BME280;54298;52.076;5.264;2022-08-24T02:39:56;101711.0;;;19.0;81.67
67430;BME280;54298;52.076;5.264;2022-08-24T02:41:33;101715.0;;;18.86;82.04
67430;BME280;54298;52.076;5.264;2022-08-24T02:43:10;101715.0;;;18.84;82.23
67430;BME280;54298;52.076;5.264;2022-08-24T02:46:25;101714.0;;;18.84;82.21
67430;BME280;54298;52.076;5.264;2022-08-24T02:48:03;101716.0;;;18.84;82.18
67430;BME280;54298;52.076;5.264;2022-08-24T02:49:39;101716.0;;;18.88;82.11
67430;BME280;54298;52.076;5.264;2022-08-24T02:51:18;101716.0;;;18.8;82.39
67430;BME280;54298;52.076;5.264;2022-08-24T02:54:31;101713.0;;;18.73;82.83
67430;BME280;54298;52.076;5.264;2022-08-24T02:56:08;101712.0;;;18.73;82.89
67430;BME280;54298;52.076;5.264;2022-08-24T02:57:43;101711.0;;;18.73;82.81
67430;BME280;54298;52.076;5.264;2022-08-24T03:00:56;101717.0;;;18.75;82.82
67430;BME280;54298;52.076;5.264;2022-08-24T03:02:32;101715.0;;;18.79;82.43
67430;BME280;54298;52.076;5.264;2022-08-24T03:04:08;101716.0;;;18.77;82.44
67430;BME280;54298;52.076;5.264;2022-08-24T03:07:20;101719.0;;;18.75;82.55
67430;BME280;54298;52.076;5.264;2022-08-24T03:08:56;101719.0;;;18.8;82.22
67430;BME280;54298;52.076;5.264;2022-08-24T03:10:32;101726.0;;;18.79;82.31
67430;BME280;54298;52.076;5.264;2022-08-24T03:13:46;101724.0;;;18.82;82.25
67430;BME280;54298;52.076;5.264;2022-08-24T03:15:22;101730.0;;;18.7;82.71
67430;BME280;54298;52.076;5.264;2022-08-24T03:16:58;101730.0;;;18.64;82.79
67430;BME280;54298;52.076;5.264;2022-08-24T03:18:35;101731.0;;;18.72;82.59
67430;BME280;54298;52.076;5.264;2022-08-24T03:21:54;101730.0;;;18.59;83.1
67430;BME280;54298;52.076;5.264;2022-08-24T03:23:32;101731.0;;;18.64;82.89
67430;BME280;54298;52.076;5.264;2022-08-24T03:25:12;101730.0;;;18.59;83.23
67430;BME280;54298;52.076;5.264;2022-08-24T03:26:49;101731.0;;;18.55;83.37
67430;BME280;54298;52.076;5.264;2022-08-24T03:30:07;101730.0;;;18.56;83.2
67430;BME280;54298;52.076;5.264;2022-08-24T03:31:45;101724.0;;;18.64;82.94
67430;BME280;54298;52.076;5.264;2022-08-24T03:33:22;101726.0;;;18.73;82.37
67430;BME280;54298;52.076;5.264;2022-08-24T03:36:35;101724.0;;;18.7;82.45
67430;BME280;54298;52.076;5.264;2022-08-24T03:38:13;101721.0;;;18.71;82.39
67430;BME280;54298;52.076;5.264;2022-08-24T03:39:50;101722.0;;;18.75;81.86
67430;BME280;54298;52.076;5.264;2022-08-24T03:43:02;101720.0;;;18.77;81.47
67430;BME280;54298;52.076;5.264;2022-08-24T03:44:40;101725.0;;;18.84;80.98
67430;BME280;54298;52.076;5.264;2022-08-24T03:46:18;101727.0;;;18.8;80.66
67430;BME280;54298;52.076;5.264;2022-08-24T03:47:55;101721.0;;;18.78;80.49
67430;BME280;54298;52.076;5.264;2022-08-24T03:51:11;101725.0;;;18.84;80.05
67430;BME280;54298;52.076;5.264;2022-08-24T03:52:49;101724.0;;;18.81;79.92
67430;BME280;54298;52.076;5.264;2022-08-24T03:54:25;101727.0;;;18.86;79.64
67430;BME280;54298;52.076;5.264;2022-08-24T03:57:38;101731.0;;;18.77;79.78
67430;BME280;54298;52.076;5.264;2022-08-24T03:59:15;101724.0;;;18.71;79.8
67430;BME280;54298;52.076;5.264;2022-08-24T04:00:50;101722.0;;;18.61;80.16
67430;BME280;54298;52.076;5.264;2022-08-24T04:02:26;101725.0;;;18.5;80.98
67430;BME280;54298;52.076;5.264;2022-08-24T04:05:40;101726.0;;;18.34;81.66
67430;BME280;54298;52.076;5.264;2022-08-24T04:07:17;101727.0;;;18.36;81.69
67430;BME280;54298;52.076;5.264;2022-08-24T04:08:54;101730.0;;;18.34;81.72
67430;BME280;54298;52.076;5.264;2022-08-24T04:12:08;101730.0;;;18.43;81.36
67430;BME280;54298;52.076;5.264;2022-08-24T04:13:46;101728.0;;;18.39;81.41
67430;BME280;54298;52.076;5.264;2022-08-24T04:15:24;101730.0;;;18.38;81.59
67430;BME280;54298;52.076;5.264;2022-08-24T04:17:01;101726.0;;;18.45;81.08
67430;BME280;54298;52.076;5.264;2022-08-24T04:20:15;101730.0;;;18.47;80.83
67430;BME280;54298;52.076;5.264;2022-08-24T04:21:52;101730.0;;;18.47;80.61
67430;BME280;54298;52.076;5.264;2022-08-24T04:23:28;101726.0;;;18.41;80.41
67430;BME280;54298;52.076;5.264;2022-08-24T04:26:43;101727.0;;;18.5;80.0
67430;BME280;54298;52.076;5.264;2022-08-24T04:28:20;101733.0;;;18.28;80.8
67430;BME280;54298;52.076;5.264;2022-08-24T04:29:57;101735.0;;;18.31;80.87
67430;BME280;54298;52.076;5.264;2022-08-24T04:33:12;101734.0;;;18.36;80.45
67430;BME280;54298;52.076;5.264;2022-08-24T04:34:49;101733.0;;;18.39;80.12
67430;BME280;54298;52.076;5.264;2022-08-24T04:36:25;101734.0;;;18.41;79.86
67430;BME280;54298;52.076;5.264;2022-08-24T04:38:02;101733.0;;;18.43;79.66
67430;BME280;54298;52.076;5.264;2022-08-24T04:41:17;101735.0;;;18.47;79.58
67430;BME280;54298;52.076;5.264;2022-08-24T04:42:53;101742.0;;;18.47;79.49
67430;BME280;54298;52.076;5.264;2022-08-24T04:44:30;101745.0;;;18.36;79.81
67430;BME280;54298;52.076;5.264;2022-08-24T04:47:45;101744.0;;;18.3;80.22
67430;BME280;54298;52.076;5.264;2022-08-24T04:49:21;101745.0;;;18.12;80.86
67430;BME280;54298;52.076;5.264;2022-08-24T04:51:00;101744.0;;;18.07;81.12
67430;BME280;54298;52.076;5.264;2022-08-24T04:52:37;101750.0;;;18.14;80.84
67430;BME280;54298;52.076;5.264;2022-08-24T04:55:51;101745.0;;;18.14;80.73
67430;BME280;54298;52.076;5.264;2022-08-24T04:57:27;101744.0;;;18.11;80.66
67430;BME280;54298;52.076;5.264;2022-08-24T04:59:04;101744.0;;;18.09;80.75
67430;BME280;54298;52.076;5.264;2022-08-24T05:02:19;101743.0;;;18.11;80.58
67430;BME280;54298;52.076;5.264;2022-08-24T05:03:56;101745.0;;;18.0;81.31
67430;BME280;54298;52.076;5.264;2022-08-24T05:05:33;101745.0;;;18.02;81.08
67430;BME280;54298;52.076;5.264;2022-08-24T05:08:47;101750.0;;;18.05;81.05
67430;BME280;54298;52.076;5.264;2022-08-24T05:10:23;101749.0;;;18.09;80.81
67430;BME280;54298;52.076;5.264;2022-08-24T05:12:01;101751.0;;;17.97;81.33
67430;BME280;54298;52.076;5.264;2022-08-24T05:13:37;101749.0;;;17.95;81.58
67430;BME280;54298;52.076;5.264;2022-08-24T05:16:52;101748.0;;;18.0;81.5
67430;BME280;54298;52.076;5.264;2022-08-24T05:18:29;101750.0;;;17.84;82.34
67430;BME280;54298;52.076;5.264;2022-08-24T05:20:05;101753.0;;;17.75;83.24
67430;BME280;54298;52.076;5.264;2022-08-24T05:23:19;101756.0;;;17.89;82.82
67430;BME280;54298;52.076;5.264;2022-08-24T05:24:56;101757.0;;;17.79;83.36
67430;BME280;54298;52.076;5.264;2022-08-24T05:26:33;101756.0;;;17.95;82.9
67430;BME280;54298;52.076;5.264;2022-08-24T05:28:09;101761.0;;;18.09;82.3
67430;BME280;54298;52.076;5.264;2022-08-24T05:31:23;101762.0;;;18.09;82.24
67430;BME280;54298;52.076;5.264;2022-08-24T05:33:01;101767.0;;;18.16;82.29
67430;BME280;54298;52.076;5.264;2022-08-24T05:34:37;101772.0;;;18.22;82.18
67430;BME280;54298;52.076;5.264;2022-08-24T05:37:53;101774.0;;;18.13;82.83
67430;BME280;54298;52.076;5.264;2022-08-24T05:39:30;101771.0;;;18.27;82.39
67430;BME280;54298;52.076;5.264;2022-08-24T05:41:06;101771.0;;;18.29;82.08
67430;BME280;54298;52.076;5.264;2022-08-24T05:44:19;101775.0;;;18.22;82.66
67430;BME280;54298;52.076;5.264;2022-08-24T05:45:54;101776.0;;;18.29;82.96
67430;BME280;54298;52.076;5.264;2022-08-24T05:47:31;101773.0;;;18.37;82.75
67430;BME280;54298;52.076;5.264;2022-08-24T05:49:09;101772.0;;;18.39;82.85
67430;BME280;54298;52.076;5.264;2022-08-24T05:54:06;101769.0;;;18.52;82.69
67430;BME280;54298;52.076;5.264;2022-08-24T05:55:42;101769.0;;;18.56;82.47
67430;BME280;54298;52.076;5.264;2022-08-24T05:58:56;101770.0;;;18.61;82.46
67430;BME280;54298;52.076;5.264;2022-08-24T06:00:32;101771.0;;;18.66;82.23
67430;BME280;54298;52.076;5.264;2022-08-24T06:02:08;101774.0;;;18.64;82.46
67430;BME280;54298;52.076;5.264;2022-08-24T06:03:45;101770.0;;;18.71;82.43
67430;BME280;54298;52.076;5.264;2022-08-24T06:06:59;101768.0;;;18.77;82.36
67430;BME280;54298;52.076;5.264;2022-08-24T06:08:37;101774.0;;;18.87;82.12
67430;BME280;54298;52.076;5.264;2022-08-24T06:10:14;101771.0;;;18.96;81.62
67430;BME280;54298;52.076;5.264;2022-08-24T06:13:26;101774.0;;;19.0;81.55
67430;BME280;54298;52.076;5.264;2022-08-24T06:15:03;101775.0;;;19.14;81.31
67430;BME280;54298;52.076;5.264;2022-08-24T06:16:41;101775.0;;;19.12;81.25
67430;BME280;54298;52.076;5.264;2022-08-24T06:18:20;101780.0;;;19.23;81.12
67430;BME280;54298;52.076;5.264;2022-08-24T06:21:35;101780.0;;;19.32;80.77
67430;BME280;54298;52.076;5.264;2022-08-24T06:23:12;101775.0;;;19.34;81.05
67430;BME280;54298;52.076;5.264;2022-08-24T06:27:42;101782.0;;;19.53;81.94
67430;BME280;54298;52.076;5.264;2022-08-24T06:29:19;101786.0;;;19.57;82.23
67430;BME280;54298;52.076;5.264;2022-08-24T06:31:00;101785.0;;;19.7;82.45
67430;BME280;54298;52.076;5.264;2022-08-24T06:34:17;101787.0;;;19.88;81.86
67430;BME280;54298;52.076;5.264;2022-08-24T06:35:53;101790.0;;;20.03;81.8
67430;BME280;54298;52.076;5.264;2022-08-24T06:37:30;101791.0;;;20.13;82.12
67430;BME280;54298;52.076;5.264;2022-08-24T06:40:43;101791.0;;;20.25;82.36
67430;BME280;54298;52.076;5.264;2022-08-24T06:42:19;101789.0;;;20.37;82.39
67430;BME280;54298;52.076;5.264;2022-08-24T06:43:55;101795.0;;;20.52;82.08
67430;BME280;54298;52.076;5.264;2022-08-24T06:45:32;101794.0;;;20.6;81.94
67430;BME280;54298;52.076;5.264;2022-08-24T06:48:46;101797.0;;;20.77;81.49
67430;BME280;54298;52.076;5.264;2022-08-24T06:50:23;101797.0;;;20.92;80.86
67430;BME280;54298;52.076;5.264;2022-08-24T06:51:59;101797.0;;;21.03;80.19
67430;BME280;54298;52.076;5.264;2022-08-24T06:55:13;101799.0;;;21.22;79.75
67430;BME280;54298;52.076;5.264;2022-08-24T06:56:48;101794.0;;;21.28;79.19
67430;BME280;54298;52.076;5.264;2022-08-24T06:58:26;101799.0;;;21.41;78.58
67430;BME280;54298;52.076;5.264;2022-08-24T07:01:41;101801.0;;;21.54;77.77
67430;BME280;54298;52.076;5.264;2022-08-24T07:03:18;101798.0;;;21.67;77.37
67430;BME280;54298;52.076;5.264;2022-08-24T07:04:53;101802.0;;;21.77;76.87
67430;BME280;54298;52.076;5.264;2022-08-24T07:06:31;101798.0;;;21.95;76.38
67430;BME280;54298;52.076;5.264;2022-08-24T07:09:44;101796.0;;;22.09;75.84
67430;BME280;54298;52.076;5.264;2022-08-24T07:11:21;101795.0;;;22.21;75.19
67430;BME280;54298;52.076;5.264;2022-08-24T07:12:58;101794.0;;;22.32;74.66
67430;BME280;54298;52.076;5.264;2022-08-24T07:16:10;101792.0;;;22.43;74.44
67430;BME280;54298;52.076;5.264;2022-08-24T07:17:46;101794.0;;;22.5;73.92
67430;BME280;54298;52.076;5.264;2022-08-24T07:19:23;101797.0;;;22.61;73.44
67430;BME280;54298;52.076;5.264;2022-08-24T07:22:38;101799.0;;;22.72;72.99
67430;BME280;54298;52.076;5.264;2022-08-24T07:24:14;101801.0;;;22.81;72.52
67430;BME280;54298;52.076;5.264;2022-08-24T07:25:50;101798.0;;;22.89;71.81
67430;BME280;54298;52.076;5.264;2022-08-24T07:27:26;101800.0;;;22.92;71.34
67430;BME280;54298;52.076;5.264;2022-08-24T07:30:46;101806.0;;;23.09;71.0
67430;BME280;54298;52.076;5.264;2022-08-24T07:32:22;101802.0;;;23.15;70.63
67430;BME280;54298;52.076;5.264;2022-08-24T07:33:58;101805.0;;;23.27;70.49
67430;BME280;54298;52.076;5.264;2022-08-24T07:37:14;101806.0;;;23.39;70.08
67430;BME280;54298;52.076;5.264;2022-08-24T07:38:51;101809.0;;;23.49;69.83
67430;BME280;54298;52.076;5.264;2022-08-24T07:40:29;101812.0;;;23.56;69.55
67430;BME280;54298;52.076;5.264;2022-08-24T07:42:06;101807.0;;;23.58;69.25
67430;BME280;54298;52.076;5.264;2022-08-24T07:45:22;101809.0;;;23.64;68.81
67430;BME280;54298;52.076;5.264;2022-08-24T07:46:59;101809.0;;;23.82;68.52
67430;BME280;54298;52.076;5.264;2022-08-24T07:48:35;101807.0;;;23.87;68.47
67430;BME280;54298;52.076;5.264;2022-08-24T07:51:48;101807.0;;;23.97;68.1
67430;BME280;54298;52.076;5.264;2022-08-24T07:53:24;101802.0;;;24.06;67.91
67430;BME280;54298;52.076;5.264;2022-08-24T07:55:02;101807.0;;;24.02;67.55
67430;BME280;54298;52.076;5.264;2022-08-24T07:58:15;101803.0;;;24.18;66.89
67430;BME280;54298;52.076;5.264;2022-08-24T07:59:51;101811.0;;;24.31;66.27
67430;BME280;54298;52.076;5.264;2022-08-24T08:01:27;101812.0;;;24.35;66.06
67430;BME280;54298;52.076;5.264;2022-08-24T08:03:04;101811.0;;;24.41;66.22
67430;BME280;54298;52.076;5.264;2022-08-24T08:06:18;101813.0;;;24.49;66.02
67430;BME280;54298;52.076;5.264;2022-08-24T08:07:55;101814.0;;;24.59;65.67
67430;BME280;54298;52.076;5.264;2022-08-24T08:09:31;101816.0;;;24.5;65.44
67430;BME280;54298;52.076;5.264;2022-08-24T08:14:22;101820.0;;;24.76;64.84
67430;BME280;54298;52.076;5.264;2022-08-24T08:15:58;101822.0;;;24.92;64.66
67430;BME280;54298;52.076;5.264;2022-08-24T08:17:36;101828.0;;;25.03;64.37
67430;BME280;54298;52.076;5.264;2022-08-24T08:20:49;101827.0;;;24.97;64.25
67430;BME280;54298;52.076;5.264;2022-08-24T08:25:19;101836.0;;;25.0;63.89
67430;BME280;54298;52.076;5.264;2022-08-24T08:26:57;101835.0;;;25.06;63.78
67430;BME280;54298;52.076;5.264;2022-08-24T08:28:33;101839.0;;;25.04;63.49
67430;BME280;54298;52.076;5.264;2022-08-24T08:30:10;101835.0;;;25.21;63.36
67430;BME280;54298;52.076;5.264;2022-08-24T08:33:22;101838.0;;;25.18;63.3
67430;BME280;54298;52.076;5.264;2022-08-24T08:34:58;101837.0;;;25.14;63.51
67430;BME280;54298;52.076;5.264;2022-08-24T08:36:35;101836.0;;;25.21;63.54
67430;BME280;54298;52.076;5.264;2022-08-24T08:39:49;101840.0;;;25.29;63.55
67430;BME280;54298;52.076;5.264;2022-08-24T08:42:18;101840.0;;;25.4;63.29
67430;BME280;54298;52.076;5.264;2022-08-24T08:45:16;101842.0;;;25.63;62.79
67430;BME280;54298;52.076;5.264;2022-08-24T08:47:15;101842.0;;;25.55;61.78
67430;BME280;54298;52.076;5.264;2022-08-24T08:49:09;101839.0;;;25.54;61.8
67430;BME280;54298;52.076;5.264;2022-08-24T08:54:28;101840.0;;;25.65;61.71
67430;BME280;54298;52.076;5.264;2022-08-24T08:56:27;101840.0;;;25.74;61.28
67430;BME280;54298;52.076;5.264;2022-08-24T08:58:22;101839.0;;;25.81;60.71
67430;BME280;54298;52.076;5.264;2022-08-24T09:00:13;101843.0;;;25.85;60.91
67430;BME280;54298;52.076;5.264;2022-08-24T09:01:58;101842.0;;;25.96;60.64
67430;BME280;54298;52.076;5.264;2022-08-24T09:04:08;101841.0;;;26.06;60.57
67430;BME280;54298;52.076;5.264;2022-08-24T09:07:25;101837.0;;;26.16;59.95
67430;BME280;54298;52.076;5.264;2022-08-24T09:09:26;101839.0;;;26.06;59.82
67430;BME280;54298;52.076;5.264;2022-08-24T09:11:20;101834.0;;;26.22;59.38
67430;BME280;54298;52.076;5.264;2022-08-24T09:13:10;101835.0;;;26.25;58.53
67430;BME280;54298;52.076;5.264;2022-08-24T09:15:06;101837.0;;;26.39;58.46
67430;BME280;54298;52.076;5.264;2022-08-24T09:17:03;101837.0;;;26.4;58.26
67430;BME280;54298;52.076;5.264;2022-08-24T09:18:58;101839.0;;;26.4;58.45
67430;BME280;54298;52.076;5.264;2022-08-24T09:20:56;101835.0;;;26.24;58.47
67430;BME280;54298;52.076;5.264;2022-08-24T09:22:47;101838.0;;;26.3;58.4
67430;BME280;54298;52.076;5.264;2022-08-24T09:24:49;101833.0;;;26.39;58.17
67430;BME280;54298;52.076;5.264;2022-08-24T09:27:04;101834.0;;;26.43;58.15
67430;BME280;54298;52.076;5.264;2022-08-24T09:28:52;101834.0;;;26.42;57.89
67430;BME280;54298;52.076;5.264;2022-08-24T09:32:50;101835.0;;;26.46;57.33
67430;BME280;54298;52.076;5.264;2022-08-24T09:34:48;101837.0;;;26.61;56.81
67430;BME280;54298;52.076;5.264;2022-08-24T09:36:43;101840.0;;;26.58;56.88
67430;BME280;54298;52.076;5.264;2022-08-24T09:38:55;101836.0;;;26.53;56.88
67430;BME280;54298;52.076;5.264;2022-08-24T09:40:37;101837.0;;;26.58;56.77
67430;BME280;54298;52.076;5.264;2022-08-24T09:43:09;101840.0;;;26.6;56.67
67430;BME280;54298;52.076;5.264;2022-08-24T09:49:52;101833.0;;;26.78;55.93
67430;BME280;54298;52.076;5.264;2022-08-24T09:53:28;101835.0;;;26.97;55.89
67430;BME280;54298;52.076;5.264;2022-08-24T09:55:41;101834.0;;;26.94;55.58
67430;BME280;54298;52.076;5.264;2022-08-24T09:57:50;101831.0;;;26.99;55.45
67430;BME280;54298;52.076;5.264;2022-08-24T09:59:47;101828.0;;;27.06;54.98
67430;BME280;54298;52.076;5.264;2022-08-24T10:01:43;101832.0;;;26.95;55.56
67430;BME280;54298;52.076;5.264;2022-08-24T10:03:44;101833.0;;;27.05;55.26
67430;BME280;54298;52.076;5.264;2022-08-24T10:05:54;101834.0;;;27.0;55.62
67430;BME280;54298;52.076;5.264;2022-08-24T10:07:39;101830.0;;;27.11;55.47
67430;BME280;54298;52.076;5.264;2022-08-24T10:09:38;101833.0;;;26.97;55.04
67430;BME280;54298;52.076;5.264;2022-08-24T10:11:34;101828.0;;;27.1;54.76
67430;BME280;54298;52.076;5.264;2022-08-24T10:13:21;101826.0;;;27.09;54.63
67430;BME280;54298;52.076;5.264;2022-08-24T10:15:07;101820.0;;;27.08;54.68
67430;BME280;54298;52.076;5.264;2022-08-24T10:18:50;101823.0;;;27.15;54.84
67430;BME280;54298;52.076;5.264;2022-08-24T10:20:47;101822.0;;;27.15;54.09
67430;BME280;54298;52.076;5.264;2022-08-24T10:22:46;101821.0;;;27.27;54.04
67430;BME280;54298;52.076;5.264;2022-08-24T10:24:49;101825.0;;;27.3;53.75
67430;BME280;54298;52.076;5.264;2022-08-24T10:26:43;101817.0;;;27.53;53.16
67430;BME280;54298;52.076;5.264;2022-08-24T10:28:47;101816.0;;;27.72;52.54
67430;BME280;54298;52.076;5.264;2022-08-24T10:30:51;101814.0;;;27.71;52.33
67430;BME280;54298;52.076;5.264;2022-08-24T10:32:48;101815.0;;;27.81;51.91
67430;BME280;54298;52.076;5.264;2022-08-24T10:34:41;101810.0;;;27.95;51.82
67430;BME280;54298;52.076;5.264;2022-08-24T10:36:51;101812.0;;;27.84;51.34
67430;BME280;54298;52.076;5.264;2022-08-24T10:40:15;101809.0;;;27.92;50.98
67430;BME280;54298;52.076;5.264;2022-08-24T10:42:43;101812.0;;;28.14;50.66
67430;BME280;54298;52.076;5.264;2022-08-24T10:44:42;101808.0;;;28.17;50.33
67430;BME280;54298;52.076;5.264;2022-08-24T10:46:57;101807.0;;;28.12;50.66
67430;BME280;54298;52.076;5.264;2022-08-24T10:48:50;101808.0;;;28.1;50.6
67430;BME280;54298;52.076;5.264;2022-08-24T10:51:22;101803.0;;;28.06;50.04
67430;BME280;54298;52.076;5.264;2022-08-24T10:53:13;101800.0;;;28.02;49.87
67430;BME280;54298;52.076;5.264;2022-08-24T10:55:13;101803.0;;;28.08;49.81
67430;BME280;54298;52.076;5.264;2022-08-24T10:56:57;101805.0;;;28.1;50.09
67430;BME280;54298;52.076;5.264;2022-08-24T10:58:44;101801.0;;;28.13;49.92
67430;BME280;54298;52.076;5.264;2022-08-24T11:02:10;101796.0;;;28.22;49.92
67430;BME280;54298;52.076;5.264;2022-08-24T11:04:06;101795.0;;;28.14;49.49
67430;BME280;54298;52.076;5.264;2022-08-24T11:05:50;101795.0;;;28.3;49.1
67430;BME280;54298;52.076;5.264;2022-08-24T11:07:30;101795.0;;;28.36;48.86
67430;BME280;54298;52.076;5.264;2022-08-24T11:09:09;101791.0;;;28.52;48.29
67430;BME280;54298;52.076;5.264;2022-08-24T11:12:43;101792.0;;;28.47;48.45
67430;BME280;54298;52.076;5.264;2022-08-24T11:14:24;101792.0;;;28.47;48.78
67430;BME280;54298;52.076;5.264;2022-08-24T11:16:03;101791.0;;;28.59;48.61
67430;BME280;54298;52.076;5.264;2022-08-24T11:17:52;101791.0;;;28.6;48.0
67430;BME280;54298;52.076;5.264;2022-08-24T11:21:09;101788.0;;;28.76;47.85
67430;BME280;54298;52.076;5.264;2022-08-24T11:23:14;101793.0;;;28.82;47.62
67430;BME280;54298;52.076;5.264;2022-08-24T11:24:54;101784.0;;;28.98;47.65
67430;BME280;54298;52.076;5.264;2022-08-24T11:26:46;101788.0;;;28.94;47.0
67430;BME280;54298;52.076;5.264;2022-08-24T11:28:31;101786.0;;;28.9;47.44